Time,TemperatureF,DewpointF,PressureIn,WindDirection,WindDirectionDegrees,WindSpeedMPH,WindSpeedGustMPH,Humidity,HourlyPrecipIn,Conditions,Clouds,dailyrainin,SoftwareType,DateUTC
2013-02-06 00:00:00,28.8,27.0,29.92,East,79,0.0,0.0,93,0.00,CLR,,0.02,WeatherDisplay:10.37,2013-02-06 05:00:00,
2013-02-06 00:01:00,28.8,27.0,29.92,East,79,0.0,0.0,93,0.00,RA,,0.00,WeatherDisplay:10.37,2013-02-06 05:01:00,
2013-02-06 00:06:00,28.8,27.0,29.92,East,79,0.0,0.0,93,0.00,RA,,0.00,WeatherDisplay:10.37,2013-02-06 05:06:00,
2013-02-06 00:11:00,28.9,27.1,29.92,East,79,0.6,1.1,93,0.00,CLR,,0.00,WeatherDisplay:10.37,2013-02-06 05:11:00,
2013-02-06 00:16:00,28.9,27.1,29.92,East,79,0.0,0.0,93,0.00,CLR,,0.00,WeatherDisplay:10.37,2013-02-06 05:16:00,
2013-02-06 00:21:00,28.9,27.1,29.92,East,79,0.0,0.0,93,0.00,CLR,,0.00,WeatherDisplay:10.37,2013-02-06 05:21:00,
2013-02-06 00:26:00,28.9,27.1,29.92,East,79,0.0,0.0,93,0.00,CLR,,0.00,WeatherDisplay:10.37,2013-02-06 05:26:00,
2013-02-06 00:31:00,28.9,27.1,29.92,East,79,0.1,0.0,93,0.00,CLR,,0.00,WeatherDisplay:10.37,2013-02-06 05:31:00,
2013-02-06 00:36:00,28.8,27.0,29.92,East,79,0.0,0.0,93,0.00,CLR,,0.00,WeatherDisplay:10.37,2013-02-06 05:36:00,
2013-02-06 00:41:00,28.8,27.0,29.92,East,79,0.4,1.1,93,0.00,CLR,,0.00,WeatherDisplay:10.37,2013-02-06 05:41:00,
2013-02-06 00:46:00,28.8,27.0,29.92,East,79,0.0,0.0,93,0.00,CLR,,0.00,WeatherDisplay:10.37,2013-02-06 05:46:00,
2013-02-06 00:51:00,28.8,27.0,29.92,East,79,0.1,0.0,93,0.00,CLR,,0.00,WeatherDisplay:10.37,2013-02-06 05:51:00,
2013-02-06 00:56:00,28.8,27.0,29.91,East,79,0.0,0.0,93,0.00,CLR,,0.00,WeatherDisplay:10.37,2013-02-06 05:56:00,
2013-02-06 01:01:00,28.8,27.0,29.92,East,79,0.0,0.0,93,0.00,CLR,,0.00,WeatherDisplay:10.37,2013-02-06 06:01:00,
2013-02-06 01:06:00,28.8,27.0,29.92,East,79,0.0,0.0,93,0.00,CLR,,0.00,WeatherDisplay:10.37,2013-02-06 06:06:00,
2013-02-06 01:11:00,28.8,27.0,29.92,East,79,0.0,0.0,93,0.00,CLR,,0.00,WeatherDisplay:10.37,2013-02-06 06:11:00,
2013-02-06 01:16:00,28.8,27.0,29.92,East,79,0.0,0.0,93,0.00,CLR,,0.00,WeatherDisplay:10.37,2013-02-06 06:16:00,
2013-02-06 01:21:00,28.7,26.9,29.92,East,79,0.0,0.0,93,0.00,CLR,,0.00,WeatherDisplay:10.37,2013-02-06 06:21:00,
2013-02-06 01:26:00,28.8,27.0,29.92,East,79,0.0,0.0,93,0.00,CLR,,0.00,WeatherDisplay:10.37,2013-02-06 06:26:00,
2013-02-06 01:31:00,28.8,27.0,29.92,East,79,0.0,0.0,93,0.00,CLR,,0.00,WeatherDisplay:10.37,2013-02-06 06:31:00,
2013-02-06 01:36:00,28.8,27.0,29.92,East,79,0.0,0.0,93,0.00,CLR,,0.00,WeatherDisplay:10.37,2013-02-06 06:36:00,
2013-02-06 01:41:00,28.8,27.0,29.91,East,79,0.0,1.1,93,0.00,CLR,,0.00,WeatherDisplay:10.37,2013-02-06 06:41:00,
2013-02-06 01:46:00,28.7,26.9,29.92,East,79,0.3,1.1,93,0.00,CLR,,0.00,WeatherDisplay:10.37,2013-02-06 06:46:00,
2013-02-06 01:51:00,28.6,26.8,29.92,East,79,0.0,0.0,93,0.00,CLR,,0.00,WeatherDisplay:10.37,2013-02-06 06:51:00,
2013-02-06 01:56:00,28.4,26.6,29.92,East,79,0.5,1.1,93,0.00,CLR,,0.00,WeatherDisplay:10.37,2013-02-06 06:56:00,
2013-02-06 02:01:00,28.0,26.2,29.92,East,79,1.1,2.3,93,0.00,CLR,,0.00,WeatherDisplay:10.37,2013-02-06 07:01:00,
2013-02-06 02:06:00,27.9,26.1,29.92,East,92,0.2,0.0,93,0.00,CLR,,0.00,WeatherDisplay:10.37,2013-02-06 07:06:00,
2013-02-06 02:11:00,28.0,26.2,29.92,East,101,0.0,1.1,93,0.00,CLR,,0.00,WeatherDisplay:10.37,2013-02-06 07:11:00,
2013-02-06 02:16:00,28.1,26.3,29.92,SSW,202,0.0,1.1,93,0.00,CLR,,0.00,WeatherDisplay:10.37,2013-02-06 07:16:00,
2013-02-06 02:21:00,28.1,26.3,29.92,SSW,203,0.8,1.1,93,0.00,CLR,,0.00,WeatherDisplay:10.37,2013-02-06 07:21:00,
2013-02-06 02:26:00,28.2,26.4,29.92,SSW,203,0.9,2.3,93,0.00,CLR,,0.00,WeatherDisplay:10.37,2013-02-06 07:26:00,
2013-02-06 02:31:00,28.3,26.5,29.92,WSW,244,0.8,1.1,93,0.00,CLR,,0.00,WeatherDisplay:10.37,2013-02-06 07:31:00,
2013-02-06 02:36:00,28.5,26.7,29.92,WSW,252,0.3,2.3,93,0.00,CLR,,0.00,WeatherDisplay:10.37,2013-02-06 07:36:00,
2013-02-06 02:41:00,28.5,26.7,29.92,WSW,238,0.0,0.0,93,0.00,CLR,,0.00,WeatherDisplay:10.37,2013-02-06 07:41:00,
2013-02-06 02:46:00,28.6,26.8,29.92,SW,235,1.1,3.5,93,0.00,CLR,,0.00,WeatherDisplay:10.37,2013-02-06 07:46:00,
2013-02-06 02:51:00,28.6,26.8,29.92,SW,235,0.0,0.0,93,0.00,CLR,,0.00,WeatherDisplay:10.37,2013-02-06 07:51:00,
2013-02-06 02:56:00,28.7,26.9,29.92,SW,235,0.4,1.1,93,0.00,CLR,,0.00,WeatherDisplay:10.37,2013-02-06 07:56:00,
2013-02-06 03:01:00,28.7,26.9,29.92,SW,235,0.0,0.0,93,0.00,CLR,,0.00,WeatherDisplay:10.37,2013-02-06 08:01:00,
2013-02-06 03:06:00,28.7,26.9,29.92,SW,235,0.6,1.1,93,0.00,CLR,,0.00,WeatherDisplay:10.37,2013-02-06 08:06:00,
2013-02-06 03:11:00,28.7,26.9,29.92,SW,235,0.0,0.0,93,0.00,CLR,,0.00,WeatherDisplay:10.37,2013-02-06 08:11:00,
2013-02-06 03:16:00,28.5,26.7,29.92,SW,235,0.0,0.0,93,0.00,CLR,,0.00,WeatherDisplay:10.37,2013-02-06 08:16:00,
2013-02-06 03:21:00,28.4,26.6,29.92,SW,235,0.0,0.0,93,0.00,CLR,,0.00,WeatherDisplay:10.37,2013-02-06 08:21:00,
2013-02-06 03:26:00,28.3,26.8,29.93,SW,235,1.0,1.1,94,0.00,CLR,,0.00,WeatherDisplay:10.37,2013-02-06 08:26:00,
2013-02-06 03:31:00,28.3,26.5,29.93,SW,235,1.4,2.3,93,0.00,CLR,,0.00,WeatherDisplay:10.37,2013-02-06 08:31:00,
2013-02-06 03:36:00,28.5,26.7,29.93,WSW,253,2.3,3.5,93,0.00,CLR,,0.00,WeatherDisplay:10.37,2013-02-06 08:36:00,
2013-02-06 03:41:00,28.7,26.9,29.93,WSW,250,1.0,1.1,93,0.00,CLR,,0.00,WeatherDisplay:10.37,2013-02-06 08:41:00,
2013-02-06 03:46:00,28.7,26.9,29.93,WSW,240,1.9,3.5,93,0.00,CLR,,0.00,WeatherDisplay:10.37,2013-02-06 08:46:00,
2013-02-06 03:51:00,28.7,26.9,29.94,WSW,240,4.1,5.8,93,0.00,CLR,,0.00,WeatherDisplay:10.37,2013-02-06 08:51:00,
2013-02-06 03:56:00,28.8,27.3,29.94,WSW,242,0.5,1.1,94,0.00,CLR,,0.00,WeatherDisplay:10.37,2013-02-06 08:56:00,
2013-02-06 04:01:00,28.8,27.0,29.94,West,267,2.9,3.5,93,0.00,CLR,,0.00,WeatherDisplay:10.37,2013-02-06 09:01:00,
2013-02-06 04:06:00,28.7,26.9,29.94,WSW,246,1.3,2.3,93,0.00,CLR,,0.00,WeatherDisplay:10.37,2013-02-06 09:06:00,
2013-02-06 04:11:00,28.5,26.7,29.94,WSW,253,1.1,3.5,93,0.00,CLR,,0.00,WeatherDisplay:10.37,2013-02-06 09:11:00,
2013-02-06 04:16:00,28.3,26.5,29.94,WSW,253,0.7,2.3,93,0.00,CLR,,0.00,WeatherDisplay:10.37,2013-02-06 09:16:00,
2013-02-06 04:21:00,28.2,26.4,29.94,WSW,241,0.0,0.0,93,0.00,CLR,,0.00,WeatherDisplay:10.37,2013-02-06 09:21:00,
2013-02-06 04:26:00,28.1,26.3,29.94,WSW,241,0.0,0.0,93,0.00,CLR,,0.00,WeatherDisplay:10.37,2013-02-06 09:26:00,
2013-02-06 04:31:00,27.8,26.0,29.95,WSW,241,0.8,1.1,93,0.00,CLR,,0.00,WeatherDisplay:10.37,2013-02-06 09:31:00,
2013-02-06 04:36:00,27.5,25.7,29.95,WSW,241,0.0,0.0,93,0.00,CLR,,0.00,WeatherDisplay:10.37,2013-02-06 09:36:00,
2013-02-06 04:41:00,27.0,25.2,29.96,WSW,241,0.0,1.1,93,0.00,CLR,,0.00,WeatherDisplay:10.37,2013-02-06 09:41:00,
2013-02-06 04:46:00,26.7,24.7,29.96,WSW,241,1.1,2.3,92,0.00,CLR,,0.00,WeatherDisplay:10.37,2013-02-06 09:46:00,
2013-02-06 04:51:00,26.5,24.8,29.96,SW,233,0.0,0.0,93,0.00,CLR,,0.00,WeatherDisplay:10.37,2013-02-06 09:51:00,
2013-02-06 04:56:00,26.2,24.5,29.96,SW,233,0.0,0.0,93,0.00,CLR,,0.00,WeatherDisplay:10.37,2013-02-06 09:56:00,
2013-02-06 05:01:00,26.0,24.3,29.96,SW,233,0.0,0.0,93,0.00,CLR,,0.00,WeatherDisplay:10.37,2013-02-06 10:01:00,
2013-02-06 05:06:00,25.5,23.5,29.97,SW,233,0.0,0.0,92,0.00,CLR,,0.00,WeatherDisplay:10.37,2013-02-06 10:06:00,
2013-02-06 05:11:00,25.2,23.2,29.97,SW,233,0.7,1.1,92,0.00,CLR,,0.00,WeatherDisplay:10.37,2013-02-06 10:11:00,
2013-02-06 05:16:00,24.9,23.2,29.97,SW,233,1.1,2.3,93,0.00,CLR,,0.00,WeatherDisplay:10.37,2013-02-06 10:16:00,
2013-02-06 05:21:00,24.8,23.1,29.97,WSW,239,1.4,3.5,93,0.00,CLR,,0.00,WeatherDisplay:10.37,2013-02-06 10:21:00,
2013-02-06 05:26:00,25.0,23.3,29.97,WSW,239,0.8,1.1,93,0.00,CLR,,0.00,WeatherDisplay:10.37,2013-02-06 10:26:00,
2013-02-06 05:31:00,25.5,23.8,29.98,WSW,239,0.4,1.1,93,0.00,CLR,,0.00,WeatherDisplay:10.37,2013-02-06 10:31:00,
2013-02-06 05:36:00,26.0,24.3,29.98,WSW,239,0.0,1.1,93,0.00,CLR,,0.00,WeatherDisplay:10.37,2013-02-06 10:36:00,
2013-02-06 05:41:00,26.3,24.6,29.98,WSW,239,0.2,1.1,93,0.00,CLR,,0.00,WeatherDisplay:10.37,2013-02-06 10:41:00,
2013-02-06 05:46:00,26.3,24.6,29.98,WSW,239,0.0,0.0,93,0.00,CLR,,0.00,WeatherDisplay:10.37,2013-02-06 10:46:00,
2013-02-06 05:51:00,26.4,24.7,29.99,WSW,240,0.7,1.1,93,0.00,CLR,,0.00,WeatherDisplay:10.37,2013-02-06 10:51:00,
2013-02-06 05:56:00,26.5,25.0,29.99,WNW,285,0.1,1.1,94,0.00,CLR,,0.00,WeatherDisplay:10.37,2013-02-06 10:56:00,
2013-02-06 06:01:00,26.7,24.9,29.99,WSW,250,1.4,3.5,93,0.00,CLR,,0.00,WeatherDisplay:10.37,2013-02-06 11:01:00,
2013-02-06 06:07:00,26.9,25.1,29.99,WSW,245,0.0,1.1,93,0.00,CLR,,0.00,WeatherDisplay:10.37,2013-02-06 11:07:00,
2013-02-06 06:12:00,27.0,25.5,30.00,West,262,0.5,2.3,94,0.00,CLR,,0.00,WeatherDisplay:10.37,2013-02-06 11:12:00,
2013-02-06 06:17:00,27.0,25.2,30.00,West,262,0.0,0.0,93,0.00,CLR,,0.00,WeatherDisplay:10.37,2013-02-06 11:17:00,
2013-02-06 06:22:00,27.0,25.2,30.00,West,262,0.0,1.1,93,0.00,CLR,,0.00,WeatherDisplay:10.37,2013-02-06 11:22:00,
2013-02-06 06:27:00,26.9,25.1,30.00,West,262,0.0,0.0,93,0.00,CLR,,0.00,WeatherDisplay:10.37,2013-02-06 11:27:00,
2013-02-06 06:32:00,26.7,24.9,30.00,West,262,0.7,1.1,93,0.00,CLR,,0.00,WeatherDisplay:10.37,2013-02-06 11:32:00,
2013-02-06 06:37:00,26.6,24.8,30.00,WNW,282,0.5,2.3,93,0.00,CLR,,0.00,WeatherDisplay:10.37,2013-02-06 11:37:00,
2013-02-06 06:42:00,26.7,24.9,30.00,SW,223,0.8,3.5,93,0.00,CLR,,0.00,WeatherDisplay:10.37,2013-02-06 11:42:00,
2013-02-06 06:47:00,26.6,24.6,30.00,SW,223,0.0,0.0,92,0.00,CLR,,0.00,WeatherDisplay:10.37,2013-02-06 11:47:00,
2013-02-06 06:52:00,26.4,24.4,30.00,SW,223,0.0,0.0,92,0.00,CLR,,0.00,WeatherDisplay:10.37,2013-02-06 11:52:00,
2013-02-06 06:57:00,26.0,24.0,30.01,SW,233,0.2,1.1,92,0.00,CLR,,0.00,WeatherDisplay:10.37,2013-02-06 11:57:00,
2013-02-06 07:02:00,25.6,23.3,30.01,West,270,1.7,2.3,91,0.00,CLR,,0.00,WeatherDisplay:10.37,2013-02-06 12:02:00,
2013-02-06 07:07:00,25.4,23.4,30.02,West,271,1.8,2.3,92,0.00,CLR,,0.00,WeatherDisplay:10.37,2013-02-06 12:07:00,
2013-02-06 07:12:00,25.3,23.3,30.03,WNW,300,3.4,3.5,92,0.00,CLR,,0.00,WeatherDisplay:10.37,2013-02-06 12:12:00,
2013-02-06 07:17:00,25.3,23.3,30.03,West,262,2.3,3.5,92,0.00,CLR,,0.00,WeatherDisplay:10.37,2013-02-06 12:17:00,
2013-02-06 07:22:00,25.3,23.0,30.04,West,277,3.0,3.5,91,0.00,CLR,,0.00,WeatherDisplay:10.37,2013-02-06 12:22:00,
2013-02-06 07:27:00,25.2,22.9,30.05,WNW,298,3.6,4.6,91,0.00,CLR,,0.00,WeatherDisplay:10.37,2013-02-06 12:27:00,
2013-02-06 07:32:00,25.5,23.2,30.05,West,277,3.7,4.6,91,0.00,CLR,,0.00,WeatherDisplay:10.37,2013-02-06 12:32:00,
2013-02-06 07:37:00,26.3,23.8,30.05,West,265,4.1,5.8,90,0.00,CLR,,0.00,WeatherDisplay:10.37,2013-02-06 12:37:00,
2013-02-06 07:42:00,26.7,23.9,30.06,West,271,3.8,3.8,89,0.00,CLR,,0.00,WeatherDisplay:10.37,2013-02-06 12:42:00,
2013-02-06 07:47:00,27.0,23.9,30.06,West,277,5.1,6.9,88,0.00,CLR,,0.00,WeatherDisplay:10.37,2013-02-06 12:47:00,
2013-02-06 07:52:00,27.6,24.2,30.06,West,277,4.4,6.9,87,0.00,CLR,,0.00,WeatherDisplay:10.37,2013-02-06 12:52:00,
2013-02-06 07:57:00,28.2,24.3,30.07,West,263,3.7,5.8,85,0.00,CLR,,0.00,WeatherDisplay:10.37,2013-02-06 12:57:00,
2013-02-06 08:02:00,28.5,24.6,30.07,West,277,2.8,4.6,85,0.00,CLR,,0.00,WeatherDisplay:10.37,2013-02-06 13:02:00,
2013-02-06 08:07:00,28.8,24.6,30.07,West,281,4.3,4.6,84,0.00,CLR,,0.00,WeatherDisplay:10.37,2013-02-06 13:07:00,
2013-02-06 08:12:00,29.2,24.7,30.07,WSW,255,4.6,4.6,83,0.00,CLR,,0.00,WeatherDisplay:10.37,2013-02-06 13:12:00,
2013-02-06 08:17:00,29.6,24.8,30.07,West,264,4.9,9.2,82,0.00,CLR,,0.00,WeatherDisplay:10.37,2013-02-06 13:17:00,
2013-02-06 08:22:00,29.8,24.7,30.07,WSW,257,6.6,9.2,81,0.00,CLR,,0.00,WeatherDisplay:10.37,2013-02-06 13:22:00,
2013-02-06 08:27:00,29.7,24.6,30.07,West,267,7.3,8.1,81,0.00,CLR,,0.00,WeatherDisplay:10.37,2013-02-06 13:27:00,
2013-02-06 08:32:00,29.8,24.7,30.07,WSW,240,3.9,6.9,81,0.00,CLR,,0.00,WeatherDisplay:10.37,2013-02-06 13:32:00,
2013-02-06 08:37:00,30.0,24.6,30.07,West,263,2.9,5.8,80,0.00,CLR,,0.00,WeatherDisplay:10.37,2013-02-06 13:37:00,
2013-02-06 08:42:00,30.3,24.9,30.07,West,273,5.2,6.9,80,0.00,CLR,,0.00,WeatherDisplay:10.37,2013-02-06 13:42:00,
2013-02-06 08:47:00,30.4,24.7,30.08,West,263,4.6,9.2,79,0.00,CLR,,0.00,WeatherDisplay:10.37,2013-02-06 13:47:00,
2013-02-06 08:52:00,30.5,24.8,30.08,West,260,6.4,6.9,79,0.00,CLR,,0.00,WeatherDisplay:10.37,2013-02-06 13:52:00,
2013-02-06 08:57:00,30.5,24.8,30.08,WSW,248,4.0,10.4,79,0.00,CLR,,0.00,WeatherDisplay:10.37,2013-02-06 13:57:00,
2013-02-06 09:02:00,30.6,25.2,30.08,West,270,4.3,5.8,80,0.00,CLR,,0.00,WeatherDisplay:10.37,2013-02-06 14:02:00,
2013-02-06 09:07:00,30.7,24.7,30.08,WSW,258,6.0,11.5,78,0.00,CLR,,0.00,WeatherDisplay:10.37,2013-02-06 14:07:00,
2013-02-06 09:12:00,30.7,25.0,30.08,West,275,5.0,5.0,79,0.00,CLR,,0.00,WeatherDisplay:10.37,2013-02-06 14:12:00,
2013-02-06 09:17:00,30.7,24.3,30.09,West,266,8.5,11.5,77,0.00,CLR,,0.00,WeatherDisplay:10.37,2013-02-06 14:17:00,
2013-02-06 09:22:00,30.8,24.7,30.09,West,261,5.1,5.8,78,0.00,CLR,,0.00,WeatherDisplay:10.37,2013-02-06 14:22:00,
2013-02-06 09:27:00,30.8,25.1,30.09,WNW,284,5.7,8.1,79,0.00,CLR,,0.00,WeatherDisplay:10.37,2013-02-06 14:27:00,
2013-02-06 09:32:00,30.8,24.4,30.10,West,262,6.2,8.1,77,0.00,CLR,,0.00,WeatherDisplay:10.37,2013-02-06 14:32:00,
2013-02-06 09:37:00,30.9,24.5,30.11,WSW,248,7.2,9.2,77,0.00,CLR,,0.00,WeatherDisplay:10.37,2013-02-06 14:37:00,
2013-02-06 09:42:00,30.9,24.5,30.10,West,269,3.9,9.2,77,0.00,CLR,,0.00,WeatherDisplay:10.37,2013-02-06 14:42:00,
2013-02-06 09:47:00,31.0,24.9,30.11,West,260,4.6,4.6,78,0.00,CLR,,0.00,WeatherDisplay:10.37,2013-02-06 14:47:00,
2013-02-06 09:52:00,31.1,24.4,30.10,West,265,5.5,10.4,76,0.00,CLR,,0.00,WeatherDisplay:10.37,2013-02-06 14:52:00,
2013-02-06 09:57:00,31.2,24.5,30.11,WSW,256,7.2,11.0,76,0.00,CLR,,0.00,WeatherDisplay:10.37,2013-02-06 14:57:00,
2013-02-06 10:02:00,31.4,25.0,30.11,West,275,5.3,5.3,77,0.00,CLR,,0.00,WeatherDisplay:10.37,2013-02-06 15:02:00,
2013-02-06 10:07:00,31.6,24.9,30.10,WSW,238,6.8,9.2,76,0.00,CLR,,0.00,WeatherDisplay:10.37,2013-02-06 15:07:00,
2013-02-06 10:12:00,31.8,24.8,30.11,West,271,7.8,8.1,75,0.00,CLR,,0.00,WeatherDisplay:10.37,2013-02-06 15:12:00,
2013-02-06 10:17:00,32.1,25.1,30.11,West,266,6.5,9.2,75,0.00,CLR,,0.00,WeatherDisplay:10.37,2013-02-06 15:17:00,
2013-02-06 10:22:00,32.4,25.0,30.10,West,267,6.2,9.2,74,0.00,CLR,,0.00,WeatherDisplay:10.37,2013-02-06 15:22:00,
2013-02-06 10:27:00,32.6,25.2,30.10,WNW,286,7.9,11.5,74,0.00,CLR,,0.00,WeatherDisplay:10.37,2013-02-06 15:27:00,
2013-02-06 10:32:00,33.0,25.3,30.11,WNW,286,5.8,10.4,73,0.00,CLR,,0.00,WeatherDisplay:10.37,2013-02-06 15:32:00,
2013-02-06 10:37:00,33.2,25.1,30.11,WSW,255,8.0,11.5,72,0.00,CLR,,0.00,WeatherDisplay:10.37,2013-02-06 15:37:00,
2013-02-06 10:42:00,33.4,25.7,30.11,West,265,8.0,11.5,73,0.00,CLR,,0.00,WeatherDisplay:10.37,2013-02-06 15:42:00,
2013-02-06 10:47:00,33.6,25.9,30.11,WNW,301,7.2,11.5,73,0.00,CLR,,0.00,WeatherDisplay:10.37,2013-02-06 15:47:00,
2013-02-06 10:52:00,33.8,25.4,30.11,West,267,8.6,11.5,71,0.01,RA,,0.01,WeatherDisplay:10.37,2013-02-06 15:52:00,
2013-02-06 10:57:00,34.2,26.4,30.11,WSW,244,4.4,9.2,73,0.01,RA,,0.01,WeatherDisplay:10.37,2013-02-06 15:57:00,
2013-02-06 11:02:00,34.6,26.2,30.11,WSW,254,7.9,12.7,71,0.01,CLR,,0.01,WeatherDisplay:10.37,2013-02-06 16:02:00,
2013-02-06 11:07:00,34.6,25.8,30.11,WSW,253,7.3,13.8,70,0.01,CLR,,0.01,WeatherDisplay:10.37,2013-02-06 16:07:00,
2013-02-06 11:12:00,34.4,25.6,30.11,WSW,238,5.9,8.1,70,0.01,CLR,,0.01,WeatherDisplay:10.37,2013-02-06 16:12:00,
2013-02-06 11:17:00,34.9,26.8,30.12,West,260,9.4,12.7,72,0.02,RA,,0.02,WeatherDisplay:10.37,2013-02-06 16:17:00,
2013-02-06 11:22:00,35.1,27.0,30.11,WSW,258,3.1,10.4,72,0.02,RA,,0.02,WeatherDisplay:10.37,2013-02-06 16:22:00,
2013-02-06 11:27:00,35.5,26.7,30.11,WNW,294,9.9,16.1,70,0.02,,,0.02,WeatherDisplay:10.37,2013-02-06 16:27:00,
2013-02-06 11:32:00,35.7,26.5,30.11,WNW,299,8.0,11.5,69,0.02,CLR,,0.02,WeatherDisplay:10.37,2013-02-06 16:32:00,
2013-02-06 11:37:00,35.4,25.9,30.11,West,277,11.7,15.0,68,0.02,CLR,,0.02,WeatherDisplay:10.37,2013-02-06 16:37:00,
2013-02-06 11:42:00,35.5,26.0,30.11,West,265,10.4,12.7,68,0.02,CLR,,0.02,WeatherDisplay:10.37,2013-02-06 16:42:00,
2013-02-06 11:47:00,35.3,25.4,30.11,West,266,8.6,12.0,67,0.02,CLR,,0.02,WeatherDisplay:10.37,2013-02-06 16:47:00,
2013-02-06 11:52:00,35.1,24.9,30.11,West,271,6.0,8.1,66,0.01,CLR,,0.02,WeatherDisplay:10.37,2013-02-06 16:52:00,
2013-02-06 11:57:00,35.7,25.8,30.11,WNW,284,9.6,16.1,67,0.01,CLR,,0.02,WeatherDisplay:10.37,2013-02-06 16:57:00,
2013-02-06 12:02:00,35.9,26.0,30.11,West,277,10.8,13.8,67,0.02,RA,,0.03,WeatherDisplay:10.37,2013-02-06 17:02:00,
2013-02-06 12:07:00,35.8,25.2,30.11,WNW,284,6.9,10.4,65,0.02,RA,,0.03,WeatherDisplay:10.37,2013-02-06 17:07:00,
2013-02-06 12:12:00,35.6,25.4,30.11,West,269,6.0,11.5,66,0.02,CLR,,0.03,WeatherDisplay:10.37,2013-02-06 17:12:00,
2013-02-06 12:17:00,35.5,24.9,30.11,West,259,9.0,15.0,65,0.01,CLR,,0.03,WeatherDisplay:10.37,2013-02-06 17:17:00,
2013-02-06 12:22:00,35.4,24.8,30.11,West,280,9.1,13.8,65,0.01,CLR,,0.03,WeatherDisplay:10.37,2013-02-06 17:22:00,
2013-02-06 12:27:00,35.6,24.6,30.11,West,268,8.9,11.5,64,0.01,CLR,,0.03,WeatherDisplay:10.37,2013-02-06 17:27:00,
2013-02-06 12:33:00,35.7,24.7,30.11,WSW,250,5.0,8.1,64,0.01,CLR,,0.03,WeatherDisplay:10.37,2013-02-06 17:33:00,
2013-02-06 12:38:00,35.6,24.6,30.11,West,267,6.7,9.2,64,0.01,CLR,,0.03,WeatherDisplay:10.37,2013-02-06 17:38:00,
2013-02-06 12:43:00,35.7,24.7,30.11,WNW,285,5.1,6.9,64,0.01,CLR,,0.03,WeatherDisplay:10.37,2013-02-06 17:43:00,
2013-02-06 12:48:00,36.0,24.6,30.11,NW,306,6.9,10.4,63,0.01,CLR,,0.03,WeatherDisplay:10.37,2013-02-06 17:48:00,
2013-02-06 12:53:00,36.0,25.0,30.11,West,271,5.9,11.5,64,0.01,CLR,,0.03,WeatherDisplay:10.37,2013-02-06 17:53:00,
2013-02-06 12:58:00,36.5,24.7,30.11,West,265,5.5,10.4,62,0.01,CLR,,0.03,WeatherDisplay:10.37,2013-02-06 17:58:00,
2013-02-06 13:03:00,37.0,25.2,30.11,WNW,283,8.7,16.1,62,0.00,CLR,,0.03,WeatherDisplay:10.37,2013-02-06 18:03:00,
2013-02-06 13:08:00,36.4,22.6,30.11,NW,305,7.0,11.5,57,0.00,CLR,,0.03,WeatherDisplay:10.37,2013-02-06 18:08:00,
2013-02-06 13:13:00,36.1,23.1,30.12,West,280,12.4,18.4,59,0.00,CLR,,0.03,WeatherDisplay:10.37,2013-02-06 18:13:00,
2013-02-06 13:18:00,35.9,23.7,30.12,WNW,289,9.4,15.0,61,0.00,CLR,,0.03,WeatherDisplay:10.37,2013-02-06 18:18:00,
2013-02-06 13:23:00,35.8,22.9,30.12,WNW,288,10.4,12.7,59,0.00,CLR,,0.03,WeatherDisplay:10.37,2013-02-06 18:23:00,
2013-02-06 13:28:00,35.9,23.7,30.12,WNW,294,7.7,10.4,61,0.00,CLR,,0.03,WeatherDisplay:10.37,2013-02-06 18:28:00,
2013-02-06 13:33:00,35.9,22.5,30.12,WNW,293,8.3,13.8,58,0.00,CLR,,0.03,WeatherDisplay:10.37,2013-02-06 18:33:00,
2013-02-06 13:38:00,36.0,23.0,30.12,West,259,6.5,10.4,59,0.00,CLR,,0.03,WeatherDisplay:10.37,2013-02-06 18:38:00,
2013-02-06 13:43:00,35.8,22.9,30.12,West,278,7.9,12.7,59,0.00,CLR,,0.03,WeatherDisplay:10.37,2013-02-06 18:43:00,
2013-02-06 13:48:00,35.7,23.2,30.13,WSW,257,7.4,11.0,60,0.00,CLR,,0.03,WeatherDisplay:10.37,2013-02-06 18:48:00,
2013-02-06 13:53:00,35.8,22.9,30.13,WNW,292,11.0,13.8,59,0.00,CLR,,0.03,WeatherDisplay:10.37,2013-02-06 18:53:00,
2013-02-06 13:58:00,35.7,22.8,30.13,NW,306,7.3,9.2,59,0.00,CLR,,0.03,WeatherDisplay:10.37,2013-02-06 18:58:00,
2013-02-06 14:03:00,36.2,23.6,30.13,WNW,302,5.4,10.4,60,0.00,CLR,,0.03,WeatherDisplay:10.37,2013-02-06 19:03:00,
2013-02-06 14:08:00,37.5,24.5,30.13,North,360,6.8,12.7,59,0.00,CLR,,0.03,WeatherDisplay:10.37,2013-02-06 19:08:00,
2013-02-06 14:13:00,37.6,23.3,30.13,WSW,252,8.1,12.7,56,0.00,CLR,,0.03,WeatherDisplay:10.37,2013-02-06 19:13:00,
2013-02-06 14:18:00,37.1,22.8,30.13,West,272,11.1,16.1,56,0.00,CLR,,0.03,WeatherDisplay:10.37,2013-02-06 19:18:00,
2013-02-06 14:23:00,37.5,23.6,30.13,West,265,12.2,16.1,57,0.00,CLR,,0.03,WeatherDisplay:10.37,2013-02-06 19:23:00,
2013-02-06 14:28:00,38.0,24.5,30.13,SW,223,9.0,13.8,58,0.00,CLR,,0.03,WeatherDisplay:10.37,2013-02-06 19:28:00,
2013-02-06 14:33:00,38.3,25.6,30.13,WNW,303,7.8,10.4,60,0.00,CLR,,0.03,WeatherDisplay:10.37,2013-02-06 19:33:00,
2013-02-06 14:38:00,38.4,24.9,30.13,West,276,11.1,15.0,58,0.00,CLR,,0.03,WeatherDisplay:10.37,2013-02-06 19:38:00,
2013-02-06 14:43:00,38.0,24.5,30.13,West,275,7.9,11.5,58,0.00,CLR,,0.03,WeatherDisplay:10.37,2013-02-06 19:43:00,
2013-02-06 14:48:00,37.0,23.6,30.14,WNW,301,9.0,12.0,58,0.00,CLR,,0.03,WeatherDisplay:10.37,2013-02-06 19:48:00,
2013-02-06 14:53:00,36.7,23.7,30.14,WNW,300,6.6,6.9,59,0.00,CLR,,0.03,WeatherDisplay:10.37,2013-02-06 19:53:00,
2013-02-06 14:58:00,37.3,24.3,30.14,WNW,298,11.7,15.0,59,0.00,CLR,,0.03,WeatherDisplay:10.37,2013-02-06 19:58:00,
2013-02-06 15:03:00,37.1,23.3,30.14,West,269,8.6,11.5,57,0.00,CLR,,0.03,WeatherDisplay:10.37,2013-02-06 20:03:00,
2013-02-06 15:08:00,36.7,23.7,30.14,West,271,8.1,12.7,59,0.00,CLR,,0.03,WeatherDisplay:10.37,2013-02-06 20:08:00,
2013-02-06 15:13:00,36.3,23.3,30.15,West,279,11.1,15.0,59,0.00,CLR,,0.03,WeatherDisplay:10.37,2013-02-06 20:13:00,
2013-02-06 15:18:00,35.7,23.2,30.15,West,263,11.8,17.3,60,0.00,CLR,,0.03,WeatherDisplay:10.37,2013-02-06 20:18:00,
2013-02-06 15:23:00,35.5,23.4,30.16,West,266,6.7,13.8,61,0.00,CLR,,0.03,WeatherDisplay:10.37,2013-02-06 20:23:00,
2013-02-06 15:28:00,35.8,24.0,30.15,WNW,296,7.6,11.5,62,0.00,CLR,,0.03,WeatherDisplay:10.37,2013-02-06 20:28:00,
2013-02-06 15:33:00,36.7,24.9,30.16,West,277,7.2,15.0,62,0.00,CLR,,0.03,WeatherDisplay:10.37,2013-02-06 20:33:00,
2013-02-06 15:38:00,37.1,24.9,30.16,WSW,255,8.8,12.7,61,0.00,CLR,,0.03,WeatherDisplay:10.37,2013-02-06 20:38:00,
2013-02-06 15:43:00,37.2,25.0,30.16,NW,304,8.6,11.5,61,0.00,CLR,,0.03,WeatherDisplay:10.37,2013-02-06 20:43:00,
2013-02-06 15:48:00,36.5,23.5,30.16,West,267,11.1,11.5,59,0.00,CLR,,0.03,WeatherDisplay:10.37,2013-02-06 20:48:00,
2013-02-06 15:53:00,36.2,24.0,30.17,WNW,292,8.5,12.7,61,0.00,CLR,,0.03,WeatherDisplay:10.37,2013-02-06 20:53:00,
2013-02-06 15:58:00,36.4,24.6,30.17,West,269,5.5,9.2,62,0.00,CLR,,0.03,WeatherDisplay:10.37,2013-02-06 20:58:00,
2013-02-06 16:03:00,36.6,24.0,30.17,WSW,252,8.5,8.5,60,0.00,CLR,,0.03,WeatherDisplay:10.37,2013-02-06 21:03:00,
2013-02-06 16:08:00,37.0,24.0,30.17,WNW,284,10.3,17.3,59,0.00,CLR,,0.03,WeatherDisplay:10.37,2013-02-06 21:08:00,
2013-02-06 16:13:00,37.0,24.0,30.17,West,270,5.9,10.4,59,0.00,CLR,,0.03,WeatherDisplay:10.37,2013-02-06 21:13:00,
2013-02-06 16:18:00,37.1,24.1,30.17,West,273,9.7,12.7,59,0.00,CLR,,0.03,WeatherDisplay:10.37,2013-02-06 21:18:00,
2013-02-06 16:23:00,36.7,23.7,30.17,West,274,6.8,13.8,59,0.00,CLR,,0.03,WeatherDisplay:10.37,2013-02-06 21:23:00,
2013-02-06 16:28:00,36.2,23.6,30.18,West,263,8.7,11.5,60,0.00,CLR,,0.03,WeatherDisplay:10.37,2013-02-06 21:28:00,
2013-02-06 16:33:00,35.8,23.3,30.18,WNW,290,9.2,10.4,60,0.00,CLR,,0.03,WeatherDisplay:10.37,2013-02-06 21:33:00,
2013-02-06 16:38:00,35.7,23.6,30.18,West,281,7.6,10.0,61,0.00,CLR,,0.03,WeatherDisplay:10.37,2013-02-06 21:38:00,
2013-02-06 16:43:00,35.6,23.9,30.18,WNW,301,6.5,9.2,62,0.00,CLR,,0.03,WeatherDisplay:10.37,2013-02-06 21:43:00,
2013-02-06 16:48:00,35.6,24.2,30.18,West,272,4.3,4.3,63,0.00,CLR,,0.03,WeatherDisplay:10.37,2013-02-06 21:48:00,
2013-02-06 16:53:00,35.6,23.1,30.18,West,276,5.7,9.2,60,0.00,CLR,,0.03,WeatherDisplay:10.37,2013-02-06 21:53:00,
2013-02-06 16:58:00,35.7,23.2,30.19,WNW,299,3.3,5.0,60,0.00,CLR,,0.03,WeatherDisplay:10.37,2013-02-06 21:58:00,
2013-02-06 17:03:00,35.5,22.6,30.19,WNW,296,5.5,9.0,59,0.00,CLR,,0.03,WeatherDisplay:10.37,2013-02-06 22:03:00,
2013-02-06 17:08:00,35.3,22.4,30.19,WNW,294,4.9,9.2,59,0.00,CLR,,0.03,WeatherDisplay:10.37,2013-02-06 22:08:00,
2013-02-06 17:13:00,35.2,21.5,30.19,West,265,4.7,8.1,57,0.00,CLR,,0.03,WeatherDisplay:10.37,2013-02-06 22:13:00,
2013-02-06 17:18:00,34.9,21.2,30.19,West,275,5.8,9.2,57,0.00,CLR,,0.03,WeatherDisplay:10.37,2013-02-06 22:18:00,
2013-02-06 17:23:00,34.7,20.6,30.20,NW,320,5.3,8.1,56,0.00,CLR,,0.03,WeatherDisplay:10.37,2013-02-06 22:23:00,
2013-02-06 17:28:00,34.6,20.5,30.21,West,281,4.4,5.0,56,0.00,CLR,,0.03,WeatherDisplay:10.37,2013-02-06 22:28:00,
2013-02-06 17:33:00,34.3,20.2,30.21,West,281,4.3,5.8,56,0.00,CLR,,0.03,WeatherDisplay:10.37,2013-02-06 22:33:00,
2013-02-06 17:38:00,34.0,19.5,30.21,NW,304,3.2,4.6,55,0.00,CLR,,0.03,WeatherDisplay:10.37,2013-02-06 22:38:00,
2013-02-06 17:43:00,33.7,19.7,30.22,WNW,283,3.6,3.6,56,0.00,CLR,,0.03,WeatherDisplay:10.37,2013-02-06 22:43:00,
2013-02-06 17:48:00,33.5,19.0,30.22,NW,306,3.2,4.6,55,0.00,CLR,,0.03,WeatherDisplay:10.37,2013-02-06 22:48:00,
2013-02-06 17:53:00,33.4,18.9,30.23,WNW,282,2.4,3.5,55,0.00,CLR,,0.03,WeatherDisplay:10.37,2013-02-06 22:53:00,
2013-02-06 17:58:00,33.2,18.8,30.23,WNW,292,1.9,3.5,55,0.00,CLR,,0.03,WeatherDisplay:10.37,2013-02-06 22:58:00,
2013-02-06 18:03:00,32.9,18.9,30.23,WNW,284,3.3,5.8,56,0.00,CLR,,0.03,WeatherDisplay:10.37,2013-02-06 23:03:00,
2013-02-06 18:08:00,32.7,19.5,30.24,NW,304,2.3,3.5,58,0.00,CLR,,0.03,WeatherDisplay:10.37,2013-02-06 23:08:00,
2013-02-06 18:13:00,32.4,18.8,30.24,WNW,303,1.9,2.3,57,0.00,CLR,,0.03,WeatherDisplay:10.37,2013-02-06 23:13:00,
2013-02-06 18:18:00,32.1,18.6,30.24,NW,310,3.7,5.8,57,0.00,CLR,,0.03,WeatherDisplay:10.37,2013-02-06 23:18:00,
2013-02-06 18:23:00,32.1,18.2,30.25,NNW,337,4.0,8.1,56,0.00,CLR,,0.03,WeatherDisplay:10.37,2013-02-06 23:23:00,
2013-02-06 18:28:00,32.1,17.7,30.25,NW,322,5.2,6.0,55,0.00,CLR,,0.03,WeatherDisplay:10.37,2013-02-06 23:28:00,
2013-02-06 18:33:00,32.0,18.5,30.24,NW,323,5.6,6.9,57,0.00,CLR,,0.03,WeatherDisplay:10.37,2013-02-06 23:33:00,
2013-02-06 18:38:00,31.8,18.3,30.25,NNW,329,5.6,6.9,57,0.00,CLR,,0.03,WeatherDisplay:10.37,2013-02-06 23:38:00,
2013-02-06 18:43:00,31.7,17.4,30.25,NW,314,4.8,6.9,55,0.00,CLR,,0.03,WeatherDisplay:10.37,2013-02-06 23:43:00,
2013-02-06 18:48:00,31.8,17.0,30.25,NW,311,4.3,5.8,54,0.00,CLR,,0.03,WeatherDisplay:10.37,2013-02-06 23:48:00,
2013-02-06 18:53:00,31.7,16.9,30.26,WNW,297,4.4,5.8,54,0.00,CLR,,0.03,WeatherDisplay:10.37,2013-02-06 23:53:00,
2013-02-06 18:58:00,31.5,16.3,30.26,NW,323,5.0,8.1,53,0.00,CLR,,0.03,WeatherDisplay:10.37,2013-02-06 23:58:00,
2013-02-06 19:03:00,31.5,16.7,30.26,NW,310,4.7,6.9,54,0.00,CLR,,0.03,WeatherDisplay:10.37,2013-02-07 00:03:00,
2013-02-06 19:08:00,31.3,16.6,30.26,NW,325,5.4,10.4,54,0.00,CLR,,0.03,WeatherDisplay:10.37,2013-02-07 00:08:00,
2013-02-06 19:13:00,31.2,16.9,30.26,NW,311,6.4,8.1,55,0.00,CLR,,0.03,WeatherDisplay:10.37,2013-02-07 00:13:00,
2013-02-06 19:18:00,31.3,16.1,30.26,NW,317,4.8,5.8,53,0.00,CLR,,0.03,WeatherDisplay:10.37,2013-02-07 00:18:00,
2013-02-06 19:23:00,31.2,16.5,30.26,NNW,333,5.3,6.9,54,0.00,CLR,,0.03,WeatherDisplay:10.37,2013-02-07 00:23:00,
2013-02-06 19:28:00,31.1,16.4,30.27,NW,315,6.7,10.4,54,0.00,CLR,,0.03,WeatherDisplay:10.37,2013-02-07 00:28:00,
2013-02-06 19:33:00,30.9,16.2,30.27,NW,317,4.7,8.1,54,0.00,CLR,,0.03,WeatherDisplay:10.37,2013-02-07 00:33:00,
2013-02-06 19:38:00,30.7,16.4,30.27,NNW,346,4.0,4.6,55,0.00,CLR,,0.03,WeatherDisplay:10.37,2013-02-07 00:38:00,
2013-02-06 19:43:00,30.4,17.0,30.27,North,9,1.7,3.5,57,0.00,CLR,,0.03,WeatherDisplay:10.37,2013-02-07 00:43:00,
2013-02-06 19:48:00,30.1,17.5,30.28,NNW,337,3.9,4.6,59,0.00,CLR,,0.03,WeatherDisplay:10.37,2013-02-07 00:48:00,
2013-02-06 19:53:00,29.7,17.5,30.28,NNW,333,3.9,4.6,60,0.00,CLR,,0.03,WeatherDisplay:10.37,2013-02-07 00:53:00,
2013-02-06 19:58:00,29.4,17.2,30.28,NNW,340,6.5,9.2,60,0.00,CLR,,0.03,WeatherDisplay:10.37,2013-02-07 00:58:00,
2013-02-06 20:03:00,29.4,17.2,30.28,NNW,343,3.7,4.6,60,0.00,CLR,,0.03,WeatherDisplay:10.37,2013-02-07 01:03:00,
2013-02-06 20:08:00,29.4,17.2,30.28,NNW,332,3.8,4.6,60,0.00,CLR,,0.03,WeatherDisplay:10.37,2013-02-07 01:08:00,
2013-02-06 20:13:00,29.4,16.4,30.29,NW,326,2.5,5.8,58,0.00,CLR,,0.03,WeatherDisplay:10.37,2013-02-07 01:13:00,
2013-02-06 20:18:00,29.4,16.8,30.29,North,349,4.1,5.8,59,0.00,CLR,,0.03,WeatherDisplay:10.37,2013-02-07 01:18:00,
2013-02-06 20:23:00,29.4,16.4,30.29,NNW,331,5.5,6.9,58,0.00,CLR,,0.03,WeatherDisplay:10.37,2013-02-07 01:23:00,
2013-02-06 20:28:00,29.5,16.5,30.29,NNW,334,5.0,7.0,58,0.00,CLR,,0.03,WeatherDisplay:10.37,2013-02-07 01:28:00,
2013-02-06 20:33:00,29.6,16.6,30.29,NW,314,4.7,5.8,58,0.00,CLR,,0.03,WeatherDisplay:10.37,2013-02-07 01:33:00,
2013-02-06 20:38:00,29.6,16.2,30.29,NNW,332,4.0,4.6,57,0.00,CLR,,0.03,WeatherDisplay:10.37,2013-02-07 01:38:00,
2013-02-06 20:44:00,29.5,16.5,30.29,NNW,329,3.2,3.5,58,0.00,CLR,,0.03,WeatherDisplay:10.37,2013-02-07 01:44:00,
2013-02-06 20:49:00,29.4,16.4,30.30,NNW,327,1.6,3.5,58,0.00,CLR,,0.03,WeatherDisplay:10.37,2013-02-07 01:49:00,
2013-02-06 20:54:00,29.1,16.5,30.30,NNW,334,3.2,4.6,59,0.00,CLR,,0.03,WeatherDisplay:10.37,2013-02-07 01:54:00,
2013-02-06 20:59:00,28.7,16.9,30.30,NNW,336,1.7,3.5,61,0.00,CLR,,0.03,WeatherDisplay:10.37,2013-02-07 01:59:00,
2013-02-06 21:04:00,28.3,16.6,30.30,NNW,338,1.7,2.3,61,0.00,CLR,,0.03,WeatherDisplay:10.37,2013-02-07 02:04:00,
2013-02-06 21:09:00,27.9,16.6,30.30,NNW,339,1.4,2.3,62,0.00,CLR,,0.03,WeatherDisplay:10.37,2013-02-07 02:09:00,
2013-02-06 21:14:00,27.6,16.3,30.30,North,360,1.3,3.5,62,0.00,CLR,,0.03,WeatherDisplay:10.37,2013-02-07 02:14:00,
2013-02-06 21:19:00,27.6,16.6,30.30,NNE,18,1.2,2.3,63,0.00,CLR,,0.03,WeatherDisplay:10.37,2013-02-07 02:19:00,
2013-02-06 21:24:00,27.5,16.2,30.30,NNE,15,0.9,2.3,62,0.00,CLR,,0.03,WeatherDisplay:10.37,2013-02-07 02:24:00,
2013-02-06 21:29:00,27.3,17.1,30.31,NNW,346,2.4,3.5,65,0.00,CLR,,0.03,WeatherDisplay:10.37,2013-02-07 02:29:00,
2013-02-06 21:34:00,26.9,16.7,30.31,NNW,342,3.0,4.6,65,0.00,CLR,,0.03,WeatherDisplay:10.37,2013-02-07 02:34:00,
2013-02-06 21:39:00,26.4,16.9,30.31,NNW,344,3.6,4.6,67,0.00,CLR,,0.03,WeatherDisplay:10.37,2013-02-07 02:39:00,
2013-02-06 21:44:00,26.2,16.7,30.31,North,5,3.0,3.5,67,0.00,CLR,,0.03,WeatherDisplay:10.37,2013-02-07 02:44:00,
2013-02-06 21:49:00,26.1,16.3,30.31,North,360,2.7,4.6,66,0.00,CLR,,0.03,WeatherDisplay:10.37,2013-02-07 02:49:00,
2013-02-06 21:54:00,26.1,16.3,30.31,North,355,1.8,3.5,66,0.00,CLR,,0.03,WeatherDisplay:10.37,2013-02-07 02:54:00,
2013-02-06 21:59:00,26.1,16.3,30.32,NNW,342,1.3,2.3,66,0.00,CLR,,0.03,WeatherDisplay:10.37,2013-02-07 02:59:00,
2013-02-06 22:04:00,26.0,16.2,30.32,NNW,342,1.3,3.5,66,0.00,CLR,,0.03,WeatherDisplay:10.37,2013-02-07 03:04:00,
2013-02-06 22:09:00,25.7,15.9,30.32,NNW,342,1.9,3.5,66,0.00,CLR,,0.03,WeatherDisplay:10.37,2013-02-07 03:09:00,
2013-02-06 22:14:00,25.5,16.1,30.32,North,5,1.5,2.3,67,0.00,CLR,,0.03,WeatherDisplay:10.37,2013-02-07 03:14:00,
2013-02-06 22:19:00,25.5,15.4,30.33,North,5,1.0,2.3,65,0.00,CLR,,0.03,WeatherDisplay:10.37,2013-02-07 03:19:00,
2013-02-06 22:24:00,25.6,15.5,30.33,North,360,1.6,2.3,65,0.00,CLR,,0.03,WeatherDisplay:10.37,2013-02-07 03:24:00,
2013-02-06 22:29:00,25.4,16.0,30.33,NNW,345,2.5,3.5,67,0.00,CLR,,0.03,WeatherDisplay:10.37,2013-02-07 03:29:00,
2013-02-06 22:34:00,25.1,15.7,30.33,North,350,2.1,3.5,67,0.00,CLR,,0.03,WeatherDisplay:10.37,2013-02-07 03:34:00,
2013-02-06 22:39:00,24.9,15.1,30.33,NNE,33,4.1,6.9,66,0.00,CLR,,0.03,WeatherDisplay:10.37,2013-02-07 03:39:00,
2013-02-06 22:44:00,25.1,15.3,30.33,NE,49,2.5,3.5,66,0.00,CLR,,0.03,WeatherDisplay:10.37,2013-02-07 03:44:00,
2013-02-06 22:49:00,25.2,15.1,30.34,NNE,26,1.0,2.3,65,0.00,CLR,,0.03,WeatherDisplay:10.37,2013-02-07 03:49:00,
2013-02-06 22:54:00,25.3,14.8,30.34,NNE,26,0.3,1.1,64,0.00,CLR,,0.03,WeatherDisplay:10.37,2013-02-07 03:54:00,
2013-02-06 22:59:00,25.1,15.0,30.34,North,10,1.9,3.5,65,0.00,CLR,,0.03,WeatherDisplay:10.37,2013-02-07 03:59:00,
2013-02-06 23:04:00,24.7,14.9,30.34,North,9,0.2,1.1,66,0.00,CLR,,0.03,WeatherDisplay:10.37,2013-02-07 04:04:00,
2013-02-06 23:09:00,24.4,14.7,30.34,North,9,1.1,2.0,66,0.00,CLR,,0.03,WeatherDisplay:10.37,2013-02-07 04:09:00,
2013-02-06 23:14:00,24.2,16.1,30.33,NE,35,1.1,2.3,71,0.00,CLR,,0.03,WeatherDisplay:10.37,2013-02-07 04:14:00,
2013-02-06 23:19:00,23.8,15.1,30.34,ENE,67,1.0,2.0,69,0.00,CLR,,0.03,WeatherDisplay:10.37,2013-02-07 04:19:00,
2013-02-06 23:24:00,23.7,14.3,30.34,NE,43,1.5,3.5,67,0.00,CLR,,0.03,WeatherDisplay:10.37,2013-02-07 04:24:00,
2013-02-06 23:29:00,23.9,14.2,30.34,ENE,61,0.7,2.3,66,0.00,CLR,,0.03,WeatherDisplay:10.37,2013-02-07 04:29:00,
2013-02-06 23:34:00,24.0,16.0,30.34,ENE,57,0.5,1.1,71,0.00,CLR,,0.03,WeatherDisplay:10.37,2013-02-07 04:34:00,
2013-02-06 23:39:00,23.6,16.5,30.34,ENE,57,0.0,0.0,74,0.00,CLR,,0.03,WeatherDisplay:10.37,2013-02-07 04:39:00,
2013-02-06 23:44:00,23.2,16.1,30.34,ENE,57,0.0,0.0,74,0.00,CLR,,0.03,WeatherDisplay:10.37,2013-02-07 04:44:00,
2013-02-06 23:49:00,22.7,16.0,30.34,ENE,57,0.0,1.1,75,0.00,CLR,,0.03,WeatherDisplay:10.37,2013-02-07 04:49:00,
2013-02-06 23:54:00,22.2,14.9,30.34,ENE,57,0.4,2.3,73,0.00,CLR,,0.03,WeatherDisplay:10.37,2013-02-07 04:54:00,
2013-02-06 23:59:00,21.9,14.6,30.34,ENE,57,0.1,0.0,73,0.00,CLR,,0.03,WeatherDisplay:10.37,2013-02-07 04:59:00,